sensor_id;sensor_type;location;lat;lon;timestamp;P1;durP1;ratioP1;P2;durP2;ratioP2
76593;SDS011;65482;50.240;14.302;2023-06-10T00:02:11;11.63;;;9.15;;
76593;SDS011;65482;50.240;14.302;2023-06-10T00:04:37;11.85;;;9.75;;
76593;SDS011;65482;50.240;14.302;2023-06-10T00:07:03;11.93;;;9.13;;
76593;SDS011;65482;50.240;14.302;2023-06-10T00:09:37;13.15;;;9.68;;
76593;SDS011;65482;50.240;14.302;2023-06-10T00:12:04;13.13;;;9.02;;
76593;SDS011;65482;50.240;14.302;2023-06-10T00:14:30;12.77;;;9.07;;
76593;SDS011;65482;50.240;14.302;2023-06-10T00:16:56;13.32;;;9.50;;
76593;SDS011;65482;50.240;14.302;2023-06-10T00:19:23;12.35;;;8.93;;
76593;SDS011;65482;50.240;14.302;2023-06-10T00:21:51;13.77;;;8.15;;
76593;SDS011;65482;50.240;14.302;2023-06-10T00:24:18;16.27;;;9.48;;
76593;SDS011;65482;50.240;14.302;2023-06-10T00:26:43;13.35;;;9.63;;
76593;SDS011;65482;50.240;14.302;2023-06-10T00:29:10;13.15;;;8.85;;
76593;SDS011;65482;50.240;14.302;2023-06-10T00:31:36;14.60;;;10.02;;
76593;SDS011;65482;50.240;14.302;2023-06-10T00:34:03;15.75;;;9.55;;
76593;SDS011;65482;50.240;14.302;2023-06-10T00:36:28;13.70;;;9.60;;
76593;SDS011;65482;50.240;14.302;2023-06-10T00:38:55;19.52;;;9.57;;
76593;SDS011;65482;50.240;14.302;2023-06-10T00:41:21;11.88;;;10.05;;
76593;SDS011;65482;50.240;14.302;2023-06-10T00:43:47;15.10;;;9.52;;
76593;SDS011;65482;50.240;14.302;2023-06-10T00:46:13;11.52;;;9.45;;
76593;SDS011;65482;50.240;14.302;2023-06-10T00:48:40;12.57;;;9.48;;
76593;SDS011;65482;50.240;14.302;2023-06-10T00:51:07;13.20;;;9.38;;
76593;SDS011;65482;50.240;14.302;2023-06-10T00:53:36;11.20;;;8.65;;
76593;SDS011;65482;50.240;14.302;2023-06-10T00:56:04;14.85;;;9.20;;
76593;SDS011;65482;50.240;14.302;2023-06-10T00:58:30;10.07;;;8.27;;
76593;SDS011;65482;50.240;14.302;2023-06-10T01:00:57;13.50;;;9.38;;
76593;SDS011;65482;50.240;14.302;2023-06-10T01:03:23;14.95;;;9.48;;
76593;SDS011;65482;50.240;14.302;2023-06-10T01:08:47;12.75;;;8.40;;
76593;SDS011;65482;50.240;14.302;2023-06-10T01:11:23;10.90;;;8.65;;
76593;SDS011;65482;50.240;14.302;2023-06-10T01:13:54;11.07;;;8.57;;
76593;SDS011;65482;50.240;14.302;2023-06-10T01:16:21;13.18;;;8.52;;
76593;SDS011;65482;50.240;14.302;2023-06-10T01:18:47;12.35;;;8.98;;
76593;SDS011;65482;50.240;14.302;2023-06-10T01:21:19;12.43;;;8.65;;
76593;SDS011;65482;50.240;14.302;2023-06-10T01:23:47;15.33;;;9.40;;
76593;SDS011;65482;50.240;14.302;2023-06-10T01:26:13;14.88;;;9.70;;
76593;SDS011;65482;50.240;14.302;2023-06-10T01:28:46;11.57;;;8.57;;
76593;SDS011;65482;50.240;14.302;2023-06-10T01:31:18;10.48;;;8.73;;
76593;SDS011;65482;50.240;14.302;2023-06-10T01:33:50;11.90;;;9.30;;
76593;SDS011;65482;50.240;14.302;2023-06-10T01:36:18;12.82;;;9.13;;
76593;SDS011;65482;50.240;14.302;2023-06-10T01:38:47;13.07;;;8.65;;
76593;SDS011;65482;50.240;14.302;2023-06-10T01:41:16;12.63;;;8.50;;
76593;SDS011;65482;50.240;14.302;2023-06-10T01:43:44;12.02;;;8.70;;
76593;SDS011;65482;50.240;14.302;2023-06-10T01:46:10;13.10;;;8.88;;
76593;SDS011;65482;50.240;14.302;2023-06-10T01:48:37;11.55;;;9.23;;
76593;SDS011;65482;50.240;14.302;2023-06-10T01:51:03;13.25;;;9.10;;
76593;SDS011;65482;50.240;14.302;2023-06-10T01:53:30;16.83;;;8.73;;
76593;SDS011;65482;50.240;14.302;2023-06-10T01:55:56;14.30;;;9.52;;
76593;SDS011;65482;50.240;14.302;2023-06-10T01:58:22;15.15;;;10.07;;
76593;SDS011;65482;50.240;14.302;2023-06-10T02:00:48;13.88;;;10.73;;
76593;SDS011;65482;50.240;14.302;2023-06-10T02:03:18;15.10;;;9.52;;
76593;SDS011;65482;50.240;14.302;2023-06-10T02:05:43;13.88;;;9.60;;
76593;SDS011;65482;50.240;14.302;2023-06-10T02:08:09;14.43;;;9.68;;
76593;SDS011;65482;50.240;14.302;2023-06-10T02:10:35;20.67;;;10.55;;
76593;SDS011;65482;50.240;14.302;2023-06-10T02:13:01;15.85;;;9.07;;
76593;SDS011;65482;50.240;14.302;2023-06-10T02:15:27;12.07;;;9.40;;
76593;SDS011;65482;50.240;14.302;2023-06-10T02:17:53;12.40;;;9.65;;
76593;SDS011;65482;50.240;14.302;2023-06-10T02:20:20;14.02;;;8.95;;
76593;SDS011;65482;50.240;14.302;2023-06-10T02:22:46;14.23;;;9.60;;
76593;SDS011;65482;50.240;14.302;2023-06-10T02:25:12;14.60;;;9.38;;
76593;SDS011;65482;50.240;14.302;2023-06-10T02:27:39;15.98;;;9.75;;
76593;SDS011;65482;50.240;14.302;2023-06-10T02:30:05;11.20;;;9.02;;
76593;SDS011;65482;50.240;14.302;2023-06-10T02:32:32;13.38;;;8.90;;
76593;SDS011;65482;50.240;14.302;2023-06-10T02:34:57;13.20;;;9.25;;
76593;SDS011;65482;50.240;14.302;2023-06-10T02:37:25;13.38;;;8.65;;
76593;SDS011;65482;50.240;14.302;2023-06-10T02:39:51;11.93;;;8.55;;
76593;SDS011;65482;50.240;14.302;2023-06-10T02:42:17;13.10;;;8.35;;
76593;SDS011;65482;50.240;14.302;2023-06-10T02:44:43;11.27;;;8.55;;
76593;SDS011;65482;50.240;14.302;2023-06-10T02:47:10;12.23;;;8.90;;
76593;SDS011;65482;50.240;14.302;2023-06-10T02:49:36;15.18;;;9.05;;
76593;SDS011;65482;50.240;14.302;2023-06-10T02:52:02;12.20;;;9.60;;
76593;SDS011;65482;50.240;14.302;2023-06-10T02:54:28;11.27;;;8.85;;
76593;SDS011;65482;50.240;14.302;2023-06-10T02:56:55;14.00;;;8.80;;
76593;SDS011;65482;50.240;14.302;2023-06-10T02:59:21;13.30;;;9.10;;
76593;SDS011;65482;50.240;14.302;2023-06-10T03:01:48;17.08;;;8.70;;
76593;SDS011;65482;50.240;14.302;2023-06-10T03:04:14;10.57;;;8.52;;
76593;SDS011;65482;50.240;14.302;2023-06-10T03:06:40;15.35;;;8.95;;
76593;SDS011;65482;50.240;14.302;2023-06-10T03:09:06;10.43;;;8.55;;
76593;SDS011;65482;50.240;14.302;2023-06-10T03:11:36;11.68;;;8.57;;
76593;SDS011;65482;50.240;14.302;2023-06-10T03:14:02;14.23;;;9.40;;
76593;SDS011;65482;50.240;14.302;2023-06-10T03:16:28;14.02;;;8.48;;
76593;SDS011;65482;50.240;14.302;2023-06-10T03:18:55;12.48;;;8.85;;
76593;SDS011;65482;50.240;14.302;2023-06-10T03:21:21;14.40;;;9.13;;
76593;SDS011;65482;50.240;14.302;2023-06-10T03:23:47;14.98;;;9.20;;
76593;SDS011;65482;50.240;14.302;2023-06-10T03:26:14;12.70;;;9.32;;
76593;SDS011;65482;50.240;14.302;2023-06-10T03:28:41;11.73;;;9.38;;
76593;SDS011;65482;50.240;14.302;2023-06-10T03:31:07;12.20;;;9.52;;
76593;SDS011;65482;50.240;14.302;2023-06-10T03:33:33;13.98;;;9.38;;
76593;SDS011;65482;50.240;14.302;2023-06-10T03:35:59;13.68;;;9.13;;
76593;SDS011;65482;50.240;14.302;2023-06-10T03:38:25;13.80;;;8.35;;
76593;SDS011;65482;50.240;14.302;2023-06-10T03:40:51;14.80;;;8.63;;
76593;SDS011;65482;50.240;14.302;2023-06-10T03:43:17;13.40;;;8.13;;
76593;SDS011;65482;50.240;14.302;2023-06-10T03:45:43;11.50;;;7.35;;
76593;SDS011;65482;50.240;14.302;2023-06-10T03:48:09;9.10;;;7.10;;
76593;SDS011;65482;50.240;14.302;2023-06-10T03:50:36;10.07;;;6.90;;
76593;SDS011;65482;50.240;14.302;2023-06-10T03:53:02;10.85;;;6.95;;
76593;SDS011;65482;50.240;14.302;2023-06-10T03:55:28;10.07;;;7.82;;
76593;SDS011;65482;50.240;14.302;2023-06-10T03:57:54;10.98;;;7.65;;
76593;SDS011;65482;50.240;14.302;2023-06-10T04:00:21;10.40;;;7.05;;
76593;SDS011;65482;50.240;14.302;2023-06-10T04:02:47;10.05;;;7.40;;
76593;SDS011;65482;50.240;14.302;2023-06-10T04:05:15;11.80;;;7.28;;
76593;SDS011;65482;50.240;14.302;2023-06-10T04:07:43;10.70;;;7.45;;
76593;SDS011;65482;50.240;14.302;2023-06-10T04:10:10;8.48;;;7.38;;
76593;SDS011;65482;50.240;14.302;2023-06-10T04:12:36;10.82;;;7.50;;
76593;SDS011;65482;50.240;14.302;2023-06-10T04:15:04;11.05;;;8.02;;
76593;SDS011;65482;50.240;14.302;2023-06-10T04:17:30;15.65;;;8.18;;
76593;SDS011;65482;50.240;14.302;2023-06-10T04:19:56;13.18;;;8.52;;
76593;SDS011;65482;50.240;14.302;2023-06-10T04:22:23;12.98;;;8.70;;
76593;SDS011;65482;50.240;14.302;2023-06-10T04:24:50;11.30;;;8.05;;
76593;SDS011;65482;50.240;14.302;2023-06-10T04:27:15;14.75;;;8.68;;
76593;SDS011;65482;50.240;14.302;2023-06-10T04:29:41;11.48;;;8.32;;
76593;SDS011;65482;50.240;14.302;2023-06-10T04:32:07;12.73;;;8.38;;
76593;SDS011;65482;50.240;14.302;2023-06-10T04:34:33;10.18;;;8.15;;
76593;SDS011;65482;50.240;14.302;2023-06-10T04:36:59;11.38;;;8.65;;
76593;SDS011;65482;50.240;14.302;2023-06-10T04:39:25;12.52;;;8.75;;
76593;SDS011;65482;50.240;14.302;2023-06-10T04:41:51;15.32;;;8.85;;
76593;SDS011;65482;50.240;14.302;2023-06-10T04:44:17;12.85;;;8.82;;
76593;SDS011;65482;50.240;14.302;2023-06-10T04:46:44;15.00;;;9.02;;
76593;SDS011;65482;50.240;14.302;2023-06-10T04:49:11;10.88;;;8.88;;
76593;SDS011;65482;50.240;14.302;2023-06-10T04:51:39;14.18;;;8.73;;
76593;SDS011;65482;50.240;14.302;2023-06-10T04:54:05;13.45;;;9.38;;
76593;SDS011;65482;50.240;14.302;2023-06-10T04:56:32;12.63;;;9.32;;
76593;SDS011;65482;50.240;14.302;2023-06-10T04:58:59;13.20;;;9.65;;
76593;SDS011;65482;50.240;14.302;2023-06-10T05:01:25;13.20;;;9.40;;
76593;SDS011;65482;50.240;14.302;2023-06-10T05:03:53;14.77;;;9.98;;
76593;SDS011;65482;50.240;14.302;2023-06-10T05:06:19;16.65;;;11.15;;
76593;SDS011;65482;50.240;14.302;2023-06-10T05:08:45;13.57;;;10.63;;
76593;SDS011;65482;50.240;14.302;2023-06-10T05:11:10;14.02;;;10.77;;
76593;SDS011;65482;50.240;14.302;2023-06-10T05:13:36;15.30;;;11.85;;
76593;SDS011;65482;50.240;14.302;2023-06-10T05:16:02;14.27;;;11.70;;
76593;SDS011;65482;50.240;14.302;2023-06-10T05:18:29;14.38;;;11.25;;
76593;SDS011;65482;50.240;14.302;2023-06-10T05:20:54;15.68;;;11.70;;
76593;SDS011;65482;50.240;14.302;2023-06-10T05:23:20;14.15;;;11.65;;
76593;SDS011;65482;50.240;14.302;2023-06-10T05:25:46;14.27;;;11.85;;
76593;SDS011;65482;50.240;14.302;2023-06-10T05:28:13;16.00;;;12.38;;
76593;SDS011;65482;50.240;14.302;2023-06-10T05:30:39;16.88;;;12.13;;
76593;SDS011;65482;50.240;14.302;2023-06-10T05:33:05;13.00;;;11.48;;
76593;SDS011;65482;50.240;14.302;2023-06-10T05:35:31;16.25;;;12.00;;
76593;SDS011;65482;50.240;14.302;2023-06-10T05:37:57;19.10;;;12.18;;
76593;SDS011;65482;50.240;14.302;2023-06-10T05:40:23;16.08;;;12.18;;
76593;SDS011;65482;50.240;14.302;2023-06-10T05:42:49;14.77;;;11.40;;
76593;SDS011;65482;50.240;14.302;2023-06-10T05:45:15;14.60;;;12.10;;
76593;SDS011;65482;50.240;14.302;2023-06-10T05:47:42;18.13;;;11.80;;
76593;SDS011;65482;50.240;14.302;2023-06-10T05:50:08;16.48;;;11.50;;
76593;SDS011;65482;50.240;14.302;2023-06-10T05:52:35;13.93;;;12.35;;
76593;SDS011;65482;50.240;14.302;2023-06-10T05:55:02;15.10;;;13.02;;
76593;SDS011;65482;50.240;14.302;2023-06-10T05:57:29;20.23;;;12.27;;
76593;SDS011;65482;50.240;14.302;2023-06-10T05:59:54;17.88;;;12.00;;
76593;SDS011;65482;50.240;14.302;2023-06-10T06:02:20;17.70;;;11.70;;
76593;SDS011;65482;50.240;14.302;2023-06-10T06:04:46;19.05;;;11.90;;
76593;SDS011;65482;50.240;14.302;2023-06-10T06:07:12;17.35;;;11.93;;
76593;SDS011;65482;50.240;14.302;2023-06-10T06:09:39;15.45;;;11.52;;
76593;SDS011;65482;50.240;14.302;2023-06-10T06:12:05;18.15;;;12.23;;
76593;SDS011;65482;50.240;14.302;2023-06-10T06:14:32;16.02;;;11.77;;
76593;SDS011;65482;50.240;14.302;2023-06-10T06:17:02;14.32;;;11.00;;
76593;SDS011;65482;50.240;14.302;2023-06-10T06:19:28;14.88;;;10.57;;
76593;SDS011;65482;50.240;14.302;2023-06-10T06:21:54;15.82;;;11.15;;
76593;SDS011;65482;50.240;14.302;2023-06-10T06:24:20;15.75;;;11.05;;
76593;SDS011;65482;50.240;14.302;2023-06-10T06:26:46;15.73;;;10.50;;
76593;SDS011;65482;50.240;14.302;2023-06-10T06:29:12;13.70;;;9.07;;
76593;SDS011;65482;50.240;14.302;2023-06-10T06:31:38;13.18;;;9.00;;
76593;SDS011;65482;50.240;14.302;2023-06-10T06:34:04;12.15;;;8.48;;
76593;SDS011;65482;50.240;14.302;2023-06-10T06:36:30;12.48;;;8.88;;
76593;SDS011;65482;50.240;14.302;2023-06-10T06:38:55;14.75;;;9.27;;
76593;SDS011;65482;50.240;14.302;2023-06-10T06:41:21;12.30;;;9.25;;
76593;SDS011;65482;50.240;14.302;2023-06-10T06:43:47;10.02;;;8.55;;
76593;SDS011;65482;50.240;14.302;2023-06-10T06:46:13;10.25;;;7.85;;
76593;SDS011;65482;50.240;14.302;2023-06-10T06:48:39;10.63;;;8.02;;
76593;SDS011;65482;50.240;14.302;2023-06-10T06:51:06;8.93;;;7.53;;
76593;SDS011;65482;50.240;14.302;2023-06-10T06:53:32;8.50;;;7.57;;
76593;SDS011;65482;50.240;14.302;2023-06-10T06:55:58;8.38;;;7.38;;
76593;SDS011;65482;50.240;14.302;2023-06-10T06:58:23;7.93;;;6.95;;
76593;SDS011;65482;50.240;14.302;2023-06-10T07:00:50;7.22;;;6.15;;
76593;SDS011;65482;50.240;14.302;2023-06-10T07:03:16;8.18;;;6.05;;
76593;SDS011;65482;50.240;14.302;2023-06-10T07:05:42;9.02;;;6.20;;
76593;SDS011;65482;50.240;14.302;2023-06-10T07:08:08;6.63;;;5.85;;
76593;SDS011;65482;50.240;14.302;2023-06-10T07:10:35;7.50;;;6.30;;
76593;SDS011;65482;50.240;14.302;2023-06-10T07:13:00;8.32;;;6.68;;
76593;SDS011;65482;50.240;14.302;2023-06-10T07:15:27;8.85;;;6.50;;
76593;SDS011;65482;50.240;14.302;2023-06-10T07:17:53;10.63;;;6.65;;
76593;SDS011;65482;50.240;14.302;2023-06-10T07:20:19;7.00;;;6.30;;
76593;SDS011;65482;50.240;14.302;2023-06-10T07:22:45;7.55;;;6.75;;
76593;SDS011;65482;50.240;14.302;2023-06-10T07:25:11;8.43;;;7.35;;
76593;SDS011;65482;50.240;14.302;2023-06-10T07:27:36;10.02;;;7.38;;
76593;SDS011;65482;50.240;14.302;2023-06-10T07:30:03;9.43;;;6.82;;
76593;SDS011;65482;50.240;14.302;2023-06-10T07:32:32;7.35;;;6.25;;
76593;SDS011;65482;50.240;14.302;2023-06-10T07:34:58;8.88;;;6.20;;
76593;SDS011;65482;50.240;14.302;2023-06-10T07:37:23;12.85;;;6.22;;
76593;SDS011;65482;50.240;14.302;2023-06-10T07:39:49;6.55;;;5.80;;
76593;SDS011;65482;50.240;14.302;2023-06-10T07:42:15;6.28;;;5.55;;
76593;SDS011;65482;50.240;14.302;2023-06-10T07:44:41;5.95;;;5.35;;
76593;SDS011;65482;50.240;14.302;2023-06-10T07:47:06;8.88;;;5.43;;
76593;SDS011;65482;50.240;14.302;2023-06-10T07:49:32;6.05;;;5.32;;
76593;SDS011;65482;50.240;14.302;2023-06-10T07:51:58;6.40;;;5.25;;
76593;SDS011;65482;50.240;14.302;2023-06-10T07:54:24;5.57;;;4.95;;
76593;SDS011;65482;50.240;14.302;2023-06-10T07:56:50;6.20;;;5.53;;
76593;SDS011;65482;50.240;14.302;2023-06-10T07:59:19;9.52;;;5.30;;
76593;SDS011;65482;50.240;14.302;2023-06-10T08:01:45;7.93;;;5.00;;
76593;SDS011;65482;50.240;14.302;2023-06-10T08:04:11;8.93;;;5.10;;
76593;SDS011;65482;50.240;14.302;2023-06-10T08:06:37;5.45;;;4.95;;
76593;SDS011;65482;50.240;14.302;2023-06-10T08:09:03;6.93;;;5.45;;
76593;SDS011;65482;50.240;14.302;2023-06-10T08:11:29;7.55;;;5.68;;
76593;SDS011;65482;50.240;14.302;2023-06-10T08:13:55;5.95;;;5.35;;
76593;SDS011;65482;50.240;14.302;2023-06-10T08:16:21;11.38;;;5.93;;
76593;SDS011;65482;50.240;14.302;2023-06-10T08:18:48;6.55;;;5.13;;
76593;SDS011;65482;50.240;14.302;2023-06-10T08:21:15;5.40;;;4.65;;
76593;SDS011;65482;50.240;14.302;2023-06-10T08:23:41;7.43;;;4.47;;
76593;SDS011;65482;50.240;14.302;2023-06-10T08:26:07;8.70;;;4.93;;
76593;SDS011;65482;50.240;14.302;2023-06-10T08:28:33;5.32;;;4.82;;
76593;SDS011;65482;50.240;14.302;2023-06-10T08:30:59;8.65;;;4.75;;
76593;SDS011;65482;50.240;14.302;2023-06-10T08:33:25;5.57;;;4.65;;
76593;SDS011;65482;50.240;14.302;2023-06-10T08:35:50;5.70;;;4.93;;
76593;SDS011;65482;50.240;14.302;2023-06-10T08:38:17;6.28;;;4.85;;
76593;SDS011;65482;50.240;14.302;2023-06-10T08:40:43;5.35;;;4.57;;
76593;SDS011;65482;50.240;14.302;2023-06-10T08:45:53;4.73;;;4.33;;
76593;SDS011;65482;50.240;14.302;2023-06-10T08:48:26;6.30;;;4.35;;
76593;SDS011;65482;50.240;14.302;2023-06-10T08:51:00;4.93;;;4.50;;
76593;SDS011;65482;50.240;14.302;2023-06-10T08:53:29;5.00;;;4.50;;
76593;SDS011;65482;50.240;14.302;2023-06-10T08:55:57;5.63;;;4.45;;
76593;SDS011;65482;50.240;14.302;2023-06-10T08:58:26;4.82;;;4.10;;
76593;SDS011;65482;50.240;14.302;2023-06-10T09:00:53;5.65;;;4.22;;
76593;SDS011;65482;50.240;14.302;2023-06-10T09:03:21;4.65;;;4.20;;
76593;SDS011;65482;50.240;14.302;2023-06-10T09:05:48;6.40;;;4.55;;
76593;SDS011;65482;50.240;14.302;2023-06-10T09:08:14;6.18;;;4.88;;
76593;SDS011;65482;50.240;14.302;2023-06-10T09:10:40;4.97;;;4.57;;
76593;SDS011;65482;50.240;14.302;2023-06-10T09:13:07;6.38;;;4.85;;
76593;SDS011;65482;50.240;14.302;2023-06-10T09:15:33;6.97;;;4.95;;
76593;SDS011;65482;50.240;14.302;2023-06-10T09:17:59;6.43;;;5.68;;
76593;SDS011;65482;50.240;14.302;2023-06-10T09:20:25;6.05;;;5.45;;
76593;SDS011;65482;50.240;14.302;2023-06-10T09:22:51;5.95;;;5.35;;
76593;SDS011;65482;50.240;14.302;2023-06-10T09:25:17;8.45;;;5.03;;
76593;SDS011;65482;50.240;14.302;2023-06-10T09:27:47;8.27;;;5.53;;
76593;SDS011;65482;50.240;14.302;2023-06-10T09:32:54;8.27;;;4.95;;
76593;SDS011;65482;50.240;14.302;2023-06-10T09:35:24;6.07;;;5.47;;
76593;SDS011;65482;50.240;14.302;2023-06-10T09:37:52;7.47;;;5.82;;
76593;SDS011;65482;50.240;14.302;2023-06-10T09:40:18;6.47;;;5.82;;
76593;SDS011;65482;50.240;14.302;2023-06-10T09:42:45;8.15;;;7.22;;
76593;SDS011;65482;50.240;14.302;2023-06-10T09:45:10;8.90;;;7.05;;
76593;SDS011;65482;50.240;14.302;2023-06-10T09:47:36;9.70;;;7.28;;
76593;SDS011;65482;50.240;14.302;2023-06-10T09:50:02;8.80;;;6.82;;
76593;SDS011;65482;50.240;14.302;2023-06-10T09:52:29;7.40;;;6.40;;
76593;SDS011;65482;50.240;14.302;2023-06-10T09:54:59;7.18;;;6.47;;
76593;SDS011;65482;50.240;14.302;2023-06-10T09:57:31;7.85;;;6.50;;
76593;SDS011;65482;50.240;14.302;2023-06-10T10:00:10;8.15;;;7.05;;
76593;SDS011;65482;50.240;14.302;2023-06-10T10:02:46;8.38;;;6.97;;
76593;SDS011;65482;50.240;14.302;2023-06-10T10:05:13;9.65;;;7.40;;
76593;SDS011;65482;50.240;14.302;2023-06-10T10:07:43;8.27;;;6.72;;
76593;SDS011;65482;50.240;14.302;2023-06-10T10:10:11;10.00;;;6.75;;
76593;SDS011;65482;50.240;14.302;2023-06-10T10:12:39;8.00;;;6.10;;
76593;SDS011;65482;50.240;14.302;2023-06-10T10:15:09;8.00;;;6.60;;
76593;SDS011;65482;50.240;14.302;2023-06-10T10:17:37;9.57;;;7.13;;
76593;SDS011;65482;50.240;14.302;2023-06-10T10:20:08;8.25;;;6.90;;
76593;SDS011;65482;50.240;14.302;2023-06-10T10:22:39;11.23;;;7.13;;
76593;SDS011;65482;50.240;14.302;2023-06-10T10:25:11;7.32;;;6.63;;
76593;SDS011;65482;50.240;14.302;2023-06-10T10:27:43;7.25;;;6.55;;
76593;SDS011;65482;50.240;14.302;2023-06-10T10:30:14;8.75;;;6.72;;
76593;SDS011;65482;50.240;14.302;2023-06-10T10:32:50;7.00;;;6.32;;
76593;SDS011;65482;50.240;14.302;2023-06-10T10:35:27;7.65;;;6.35;;
76593;SDS011;65482;50.240;14.302;2023-06-10T10:37:53;9.98;;;6.75;;
76593;SDS011;65482;50.240;14.302;2023-06-10T10:40:20;7.15;;;6.10;;
76593;SDS011;65482;50.240;14.302;2023-06-10T10:42:50;8.85;;;6.38;;
76593;SDS011;65482;50.240;14.302;2023-06-10T10:45:17;7.53;;;6.75;;
76593;SDS011;65482;50.240;14.302;2023-06-10T10:47:45;7.78;;;5.80;;
76593;SDS011;65482;50.240;14.302;2023-06-10T10:50:15;7.53;;;5.78;;
76593;SDS011;65482;50.240;14.302;2023-06-10T10:52:50;7.43;;;5.65;;
76593;SDS011;65482;50.240;14.302;2023-06-10T10:57:43;7.50;;;4.78;;
76593;SDS011;65482;50.240;14.302;2023-06-10T11:00:09;5.65;;;5.03;;
76593;SDS011;65482;50.240;14.302;2023-06-10T11:05:13;6.20;;;5.20;;
76593;SDS011;65482;50.240;14.302;2023-06-10T11:07:41;6.93;;;5.38;;
76593;SDS011;65482;50.240;14.302;2023-06-10T11:10:18;7.20;;;5.30;;
76593;SDS011;65482;50.240;14.302;2023-06-10T11:12:55;9.82;;;5.95;;
76593;SDS011;65482;50.240;14.302;2023-06-10T11:15:26;6.55;;;5.45;;
76593;SDS011;65482;50.240;14.302;2023-06-10T11:18:06;9.18;;;5.50;;
76593;SDS011;65482;50.240;14.302;2023-06-10T11:21:02;7.97;;;5.50;;
76593;SDS011;65482;50.240;14.302;2023-06-10T11:31:20;8.68;;;5.20;;
76593;SDS011;65482;50.240;14.302;2023-06-10T11:33:53;6.13;;;5.15;;
76593;SDS011;65482;50.240;14.302;2023-06-10T11:36:26;6.38;;;5.68;;
76593;SDS011;65482;50.240;14.302;2023-06-10T11:38:55;7.07;;;5.93;;
76593;SDS011;65482;50.240;14.302;2023-06-10T11:41:25;6.32;;;5.60;;
76593;SDS011;65482;50.240;14.302;2023-06-10T11:43:56;6.88;;;5.80;;
76593;SDS011;65482;50.240;14.302;2023-06-10T11:46:26;6.53;;;5.63;;
76593;SDS011;65482;50.240;14.302;2023-06-10T11:48:54;6.32;;;5.72;;
76593;SDS011;65482;50.240;14.302;2023-06-10T11:51:21;7.30;;;5.82;;
76593;SDS011;65482;50.240;14.302;2023-06-10T11:53:48;6.82;;;6.00;;
76593;SDS011;65482;50.240;14.302;2023-06-10T11:56:19;8.25;;;5.75;;
76593;SDS011;65482;50.240;14.302;2023-06-10T12:01:22;6.47;;;5.55;;
76593;SDS011;65482;50.240;14.302;2023-06-10T12:04:02;6.53;;;5.72;;
76593;SDS011;65482;50.240;14.302;2023-06-10T12:06:39;7.50;;;5.82;;
76593;SDS011;65482;50.240;14.302;2023-06-10T12:09:23;6.18;;;5.55;;
76593;SDS011;65482;50.240;14.302;2023-06-10T12:17:35;6.45;;;5.65;;
76593;SDS011;65482;50.240;14.302;2023-06-10T12:20:07;9.23;;;5.50;;
76593;SDS011;65482;50.240;14.302;2023-06-10T12:22:38;11.80;;;5.53;;
76593;SDS011;65482;50.240;14.302;2023-06-10T12:25:08;7.65;;;5.50;;
76593;SDS011;65482;50.240;14.302;2023-06-10T12:27:34;8.77;;;6.32;;
76593;SDS011;65482;50.240;14.302;2023-06-10T12:30:03;10.00;;;6.00;;
76593;SDS011;65482;50.240;14.302;2023-06-10T12:32:34;9.23;;;5.22;;
76593;SDS011;65482;50.240;14.302;2023-06-10T12:35:08;11.23;;;6.00;;
76593;SDS011;65482;50.240;14.302;2023-06-10T12:37:38;9.88;;;6.00;;
76593;SDS011;65482;50.240;14.302;2023-06-10T12:42:36;6.90;;;5.35;;
76593;SDS011;65482;50.240;14.302;2023-06-10T12:45:03;6.38;;;5.28;;
76593;SDS011;65482;50.240;14.302;2023-06-10T12:47:30;6.78;;;5.22;;
76593;SDS011;65482;50.240;14.302;2023-06-10T12:50:01;8.38;;;5.32;;
76593;SDS011;65482;50.240;14.302;2023-06-10T12:52:28;7.47;;;5.72;;
76593;SDS011;65482;50.240;14.302;2023-06-10T12:54:54;7.03;;;5.40;;
76593;SDS011;65482;50.240;14.302;2023-06-10T12:57:21;5.90;;;5.30;;
76593;SDS011;65482;50.240;14.302;2023-06-10T12:59:47;7.40;;;5.05;;
76593;SDS011;65482;50.240;14.302;2023-06-10T13:02:20;7.03;;;5.65;;
76593;SDS011;65482;50.240;14.302;2023-06-10T13:04:49;11.63;;;5.60;;
76593;SDS011;65482;50.240;14.302;2023-06-10T13:07:16;7.60;;;5.65;;
76593;SDS011;65482;50.240;14.302;2023-06-10T13:09:43;6.97;;;5.72;;
76593;SDS011;65482;50.240;14.302;2023-06-10T13:12:09;10.38;;;6.38;;
76593;SDS011;65482;50.240;14.302;2023-06-10T13:14:36;9.48;;;6.25;;
76593;SDS011;65482;50.240;14.302;2023-06-10T13:17:05;6.75;;;6.05;;
76593;SDS011;65482;50.240;14.302;2023-06-10T13:19:32;7.30;;;6.00;;
76593;SDS011;65482;50.240;14.302;2023-06-10T13:21:59;9.60;;;6.93;;
76593;SDS011;65482;50.240;14.302;2023-06-10T13:24:25;8.40;;;7.07;;
76593;SDS011;65482;50.240;14.302;2023-06-10T13:26:51;9.55;;;7.18;;
76593;SDS011;65482;50.240;14.302;2023-06-10T13:29:18;8.10;;;6.85;;
76593;SDS011;65482;50.240;14.302;2023-06-10T13:31:44;12.13;;;7.32;;
76593;SDS011;65482;50.240;14.302;2023-06-10T13:34:09;10.25;;;6.80;;
76593;SDS011;65482;50.240;14.302;2023-06-10T13:36:36;8.35;;;7.03;;
76593;SDS011;65482;50.240;14.302;2023-06-10T13:39:01;9.05;;;6.25;;
76593;SDS011;65482;50.240;14.302;2023-06-10T13:41:27;7.93;;;5.30;;
76593;SDS011;65482;50.240;14.302;2023-06-10T13:43:54;9.63;;;6.03;;
76593;SDS011;65482;50.240;14.302;2023-06-10T13:46:20;7.45;;;5.80;;
76593;SDS011;65482;50.240;14.302;2023-06-10T13:48:49;7.13;;;5.68;;
76593;SDS011;65482;50.240;14.302;2023-06-10T13:51:15;12.70;;;5.63;;
76593;SDS011;65482;50.240;14.302;2023-06-10T13:53:42;5.80;;;4.55;;
76593;SDS011;65482;50.240;14.302;2023-06-10T13:56:08;6.38;;;5.50;;
76593;SDS011;65482;50.240;14.302;2023-06-10T13:58:35;7.30;;;4.93;;
76593;SDS011;65482;50.240;14.302;2023-06-10T14:01:06;5.50;;;5.00;;
76593;SDS011;65482;50.240;14.302;2023-06-10T14:03:33;6.78;;;4.90;;
76593;SDS011;65482;50.240;14.302;2023-06-10T14:05:59;6.40;;;4.88;;
76593;SDS011;65482;50.240;14.302;2023-06-10T14:08:25;8.00;;;4.55;;
76593;SDS011;65482;50.240;14.302;2023-06-10T14:10:51;6.93;;;4.60;;
76593;SDS011;65482;50.240;14.302;2023-06-10T14:13:17;8.23;;;4.88;;
76593;SDS011;65482;50.240;14.302;2023-06-10T14:15:43;7.03;;;5.30;;
76593;SDS011;65482;50.240;14.302;2023-06-10T14:18:10;8.68;;;4.93;;
76593;SDS011;65482;50.240;14.302;2023-06-10T14:20:36;5.75;;;5.15;;
76593;SDS011;65482;50.240;14.302;2023-06-10T14:23:02;7.45;;;5.32;;
76593;SDS011;65482;50.240;14.302;2023-06-10T14:25:28;9.80;;;5.00;;
76593;SDS011;65482;50.240;14.302;2023-06-10T14:27:54;6.47;;;5.07;;
76593;SDS011;65482;50.240;14.302;2023-06-10T14:30:20;7.40;;;5.03;;
76593;SDS011;65482;50.240;14.302;2023-06-10T14:32:46;8.10;;;4.93;;
76593;SDS011;65482;50.240;14.302;2023-06-10T14:35:12;6.13;;;4.57;;
76593;SDS011;65482;50.240;14.302;2023-06-10T14:37:38;6.90;;;4.82;;
76593;SDS011;65482;50.240;14.302;2023-06-10T14:40:04;6.03;;;4.65;;
76593;SDS011;65482;50.240;14.302;2023-06-10T14:42:31;7.53;;;4.88;;
76593;SDS011;65482;50.240;14.302;2023-06-10T14:44:59;10.07;;;5.22;;
76593;SDS011;65482;50.240;14.302;2023-06-10T14:47:26;5.82;;;4.78;;
76593;SDS011;65482;50.240;14.302;2023-06-10T14:49:51;6.55;;;5.03;;
76593;SDS011;65482;50.240;14.302;2023-06-10T14:52:18;12.10;;;5.53;;
76593;SDS011;65482;50.240;14.302;2023-06-10T14:54:43;6.47;;;4.88;;
76593;SDS011;65482;50.240;14.302;2023-06-10T14:57:10;7.32;;;5.60;;
76593;SDS011;65482;50.240;14.302;2023-06-10T14:59:35;6.65;;;5.30;;